Airfield :
LOGIN :

Register | Disclaimer

   EN    FR    IT 

 










Legend :    VFR   Marginal VFR   IFR   Intensive IFR   Very Intensive IFR
Visi :
Ceiling :
>= 8 km
>= 3000ft
5 to 8 km
1000 to 3000 ft
1500m to 5 km
500 to 1000 ft
800 to 1500m
200 to 500 ft
< 800m
< 200 ft
Symbols :   Thunderstorms  Fog  Heavy snow  Heavy precipitations  Wind > 20 kt
SIGMETs :     Misc.  Thunderstorms  Icing  Turbulence  Mountain Waves  Volcanic Ashes







- Airport Elevation : 1504 ft
- IATA code : PNA


LEPP - Noain Pamplona

CURRENT METAR :
  • 171100Z 12009KT 080V160 CAVOK 15/M09 Q1024

EXPIRED METARs :
  • 171030Z 10009KT 050V140 CAVOK 15/M08 Q1024
  • 171000Z 11011KT 080V150 CAVOK 14/M10 Q1024
  • 170930Z 11010KT 080V140 CAVOK 13/M12 Q1024
  • 170900Z 11008KT 070V170 CAVOK 12/M11 Q1025
  • 170830Z 00000KT CAVOK 11/M14 Q1025

TAF AMD TAF LEPP
Valid from the 17 at 10:00 until the 18 at 09:00 UTC


171024Z 1710/1809 13009KT 9999 FEW040 TX16/1715Z TN01/1805Z
No reported NOTAMs for that airfield.
1 SIGMET reported for the Madrid FIR (LECM) :
 
Severe mountain waves
LECM SIGMET 3 VALID 170900/171200 LEVA
LECM MADRID FIR/UIR SEV MTW OBS AT 0845Z WI N4344 W00607 - N4249 W00607 - N4245 W00322 - N4341 W00322 - N4344 W00607 SFC/FL300 STNR NC=



MET'MAP, your aeronautical weather chart ! - Copyright ORBIFLY December 2007 - Disclaimer

ORBIFLY MET'MAP TEAM :

Programming & Development : Alexandra Zaïnal
Concept & Development : Baudouin d'Aumeries
Co-Development & Prog : Marc-Olivier Méhu
Technical & hardware support : Manuel Goepfert

Contact : metmap@orbifly.com




SOURCES & CREDITS :

   NOAA